createdAt,value
2023-04-16T00:02:02.311Z,3.33
2023-04-16T00:04:29.537Z,3.10
2023-04-16T00:06:56.804Z,2.97
2023-04-16T00:09:23.633Z,2.88
2023-04-16T00:11:50.656Z,3.08
2023-04-16T00:14:17.671Z,2.60
2023-04-16T00:16:44.773Z,2.33
2023-04-16T00:19:12.275Z,2.63
2023-04-16T00:21:39.394Z,6.00
2023-04-16T00:24:06.192Z,4.65
2023-04-16T00:26:33.342Z,5.25
2023-04-16T00:29:00.660Z,5.07
2023-04-16T00:31:29.405Z,4.43
2023-04-16T00:33:56.807Z,4.68
2023-04-16T00:36:24.617Z,4.68
2023-04-16T00:38:51.707Z,4.78
2023-04-16T00:41:19.003Z,4.93
2023-04-16T00:43:46.508Z,4.07
2023-04-16T00:46:13.828Z,5.28
2023-04-16T00:48:41.866Z,5.60
2023-04-16T00:51:10.208Z,4.82
2023-04-16T00:53:37.632Z,4.93
2023-04-16T00:56:06.842Z,3.90
2023-04-16T00:58:35.360Z,3.60
2023-04-16T01:01:02.902Z,3.15
2023-04-16T01:03:50.163Z,4.00
2023-04-16T01:06:18.280Z,3.35
2023-04-16T01:08:46.780Z,3.78
2023-04-16T01:11:15.362Z,4.03
2023-04-16T01:13:42.530Z,4.15
2023-04-16T01:16:11.314Z,3.72
2023-04-16T01:18:38.890Z,3.65
2023-04-16T01:21:06.155Z,4.18
2023-04-16T01:23:33.313Z,3.95
2023-04-16T01:26:00.449Z,4.15
2023-04-16T01:28:27.448Z,4.63
2023-04-16T01:30:54.386Z,4.90
2023-04-16T01:33:56.337Z,4.72
2023-04-16T01:36:23.847Z,5.55
2023-04-16T01:38:50.840Z,5.40
2023-04-16T01:41:17.990Z,7.85
2023-04-16T01:43:44.930Z,9.43
2023-04-16T01:46:18.253Z,8.60
2023-04-16T01:48:45.670Z,7.50
2023-04-16T01:51:12.771Z,7.30
2023-04-16T01:53:39.705Z,5.97
2023-04-16T01:56:07.063Z,5.72
2023-04-16T01:58:34.449Z,4.85
2023-04-16T02:01:01.713Z,5.30
2023-04-16T02:03:28.876Z,5.40
2023-04-16T02:05:56.168Z,5.32
2023-04-16T02:08:23.444Z,4.22
2023-04-16T02:10:50.973Z,4.88
2023-04-16T02:13:17.871Z,5.20
2023-04-16T02:15:48.593Z,5.50
2023-04-16T02:18:19.794Z,5.15
2023-04-16T02:20:49.670Z,5.13
2023-04-16T02:23:17.709Z,4.65
2023-04-16T02:25:47.585Z,4.47
2023-04-16T02:28:17.012Z,4.97
2023-04-16T02:30:45.774Z,4.82
2023-04-16T02:33:14.795Z,4.35
2023-04-16T02:35:52.107Z,4.70
2023-04-16T02:38:19.243Z,5.30
2023-04-16T02:40:46.396Z,5.03
2023-04-16T02:43:13.428Z,4.10
2023-04-16T02:45:40.741Z,5.53
2023-04-16T02:48:09.154Z,4.57
2023-04-16T02:50:36.277Z,4.97
2023-04-16T02:53:04.548Z,5.65
2023-04-16T02:55:31.468Z,4.75
2023-04-16T02:57:58.479Z,4.80
2023-04-16T03:00:25.731Z,4.32
2023-04-16T03:02:53.106Z,4.85
2023-04-16T03:05:20.127Z,5.00
2023-04-16T03:07:47.288Z,5.28
2023-04-16T03:10:15.510Z,4.50
2023-04-16T03:12:42.484Z,4.82
2023-04-16T03:15:09.923Z,5.07
2023-04-16T03:17:37.044Z,4.40
2023-04-16T03:20:05.099Z,5.10
2023-04-16T03:22:32.128Z,4.57
2023-04-16T03:24:59.266Z,5.57
2023-04-16T03:27:26.433Z,6.55
2023-04-16T03:29:53.508Z,6.35
2023-04-16T03:32:20.578Z,7.20
2023-04-16T03:34:47.685Z,7.72
2023-04-16T03:37:14.604Z,8.07
2023-04-16T03:39:41.900Z,8.52
2023-04-16T03:42:11.193Z,9.55
2023-04-16T03:44:38.035Z,12.95
2023-04-16T03:47:05.100Z,20.10
2023-04-16T03:49:32.113Z,43.22
2023-04-16T03:51:59.620Z,27.73
2023-04-16T03:54:27.199Z,19.80
2023-04-16T03:57:06.185Z,18.90
2023-04-16T03:59:33.633Z,25.95
2023-04-16T04:02:00.942Z,23.20
2023-04-16T04:04:28.171Z,15.60
2023-04-16T04:06:55.123Z,17.50
2023-04-16T04:09:23.228Z,17.30
2023-04-16T04:11:50.660Z,14.55
2023-04-16T04:14:18.040Z,14.73
2023-04-16T04:16:44.999Z,13.38
2023-04-16T04:19:12.697Z,14.35
2023-04-16T04:21:39.688Z,12.77
2023-04-16T04:24:06.987Z,12.48
2023-04-16T04:26:34.289Z,13.30
2023-04-16T04:29:01.479Z,12.75
2023-04-16T04:31:29.983Z,13.18
2023-04-16T04:33:57.084Z,12.45
2023-04-16T04:36:24.428Z,11.93
2023-04-16T04:38:51.689Z,14.52
2023-04-16T04:41:20.131Z,21.88
2023-04-16T04:43:47.519Z,17.92
2023-04-16T04:46:14.701Z,18.52
2023-04-16T04:48:41.706Z,16.40
2023-04-16T04:51:09.220Z,17.70
2023-04-16T04:53:36.483Z,17.77
2023-04-16T04:56:12.348Z,19.83
2023-04-16T04:58:41.546Z,24.77
2023-04-16T05:01:08.756Z,21.83
2023-04-16T05:03:36.138Z,22.27
2023-04-16T05:06:03.232Z,19.58
2023-04-16T05:08:30.034Z,18.23
2023-04-16T05:10:57.123Z,17.65
2023-04-16T05:13:24.176Z,17.95
2023-04-16T05:15:51.052Z,16.85
2023-04-16T05:18:18.110Z,14.02
2023-04-16T05:20:45.509Z,12.88
2023-04-16T05:23:12.512Z,12.50
2023-04-16T05:25:39.398Z,9.82
2023-04-16T05:28:06.133Z,6.22
2023-04-16T05:30:33.127Z,5.75
2023-04-16T05:33:00.272Z,5.15
2023-04-16T05:35:27.857Z,4.45
2023-04-16T05:37:54.967Z,5.10
2023-04-16T05:40:22.121Z,4.20
2023-04-16T05:42:49.434Z,4.32
2023-04-16T05:45:16.556Z,4.70
2023-04-16T05:47:43.850Z,4.15
2023-04-16T05:50:11.165Z,21.25
2023-04-16T05:52:38.900Z,4.85
2023-04-16T05:55:07.404Z,4.25
2023-04-16T05:57:34.531Z,4.32
2023-04-16T06:00:01.630Z,5.03
2023-04-16T06:02:38.910Z,6.13
2023-04-16T06:05:06.230Z,4.50
2023-04-16T06:07:33.029Z,4.38
2023-04-16T06:10:00.170Z,4.03
2023-04-16T06:12:27.654Z,4.47
2023-04-16T06:14:55.097Z,4.57
2023-04-16T06:17:22.752Z,5.13
2023-04-16T06:19:49.767Z,4.75
2023-04-16T06:22:16.814Z,4.53
2023-04-16T06:24:43.925Z,4.32
2023-04-16T06:27:11.117Z,4.93
2023-04-16T06:29:41.523Z,4.82
2023-04-16T06:32:09.380Z,3.67
2023-04-16T06:34:37.639Z,4.30
2023-04-16T06:37:04.656Z,4.38
2023-04-16T06:39:31.958Z,4.85
2023-04-16T06:41:59.132Z,4.10
2023-04-16T06:44:26.162Z,4.35
2023-04-16T06:46:53.745Z,4.18
2023-04-16T06:49:21.571Z,4.32
2023-04-16T06:51:48.458Z,3.88
2023-04-16T06:54:15.827Z,4.47
2023-04-16T06:56:42.906Z,4.10
2023-04-16T06:59:09.846Z,4.30
2023-04-16T07:01:37.084Z,5.07
2023-04-16T07:04:04.539Z,3.67
2023-04-16T07:06:32.221Z,3.45
2023-04-16T07:08:59.223Z,3.75
2023-04-16T07:11:26.863Z,3.85
2023-04-16T07:13:54.130Z,3.88
2023-04-16T07:16:21.453Z,3.60
2023-04-16T07:18:48.520Z,3.88
2023-04-16T07:21:15.787Z,3.53
2023-04-16T07:23:42.825Z,7.75
2023-04-16T07:26:09.914Z,5.90
2023-04-16T07:28:36.958Z,3.05
2023-04-16T07:31:04.423Z,4.13
2023-04-16T07:33:31.278Z,4.43
2023-04-16T07:35:58.324Z,3.22
2023-04-16T07:38:25.420Z,4.60
2023-04-16T07:40:52.250Z,3.65
2023-04-16T07:43:19.145Z,3.67
2023-04-16T07:45:46.223Z,3.30
2023-04-16T07:48:13.329Z,3.60
2023-04-16T07:50:41.854Z,4.53
2023-04-16T07:53:08.749Z,3.25
2023-04-16T07:55:35.730Z,2.97
2023-04-16T07:58:03.074Z,3.85
2023-04-16T08:00:29.971Z,4.72
2023-04-16T08:02:57.174Z,2.97
2023-04-16T08:05:24.322Z,3.13
2023-04-16T08:07:51.486Z,3.00
2023-04-16T08:10:18.431Z,3.25
2023-04-16T08:12:45.562Z,2.90
2023-04-16T08:15:12.485Z,3.55
2023-04-16T08:17:39.477Z,2.97
2023-04-16T08:20:07.028Z,4.57
2023-04-16T08:22:34.163Z,2.83
2023-04-16T08:25:01.126Z,3.15
2023-04-16T08:27:28.210Z,3.13
2023-04-16T08:29:55.070Z,3.08
2023-04-16T08:32:22.023Z,3.15
2023-04-16T08:34:49.089Z,4.85
2023-04-16T08:37:16.209Z,3.95
2023-04-16T08:39:43.105Z,2.95
2023-04-16T08:42:21.477Z,2.40
2023-04-16T08:44:51.038Z,2.55
2023-04-16T08:47:18.189Z,2.88
2023-04-16T08:49:46.298Z,2.50
2023-04-16T08:52:20.447Z,3.42
2023-04-16T08:54:58.590Z,2.78
2023-04-16T08:57:36.174Z,2.58
2023-04-16T09:00:04.216Z,2.50
2023-04-16T09:02:31.925Z,3.35
2023-04-16T09:05:00.381Z,4.13
2023-04-16T09:07:29.112Z,3.30
2023-04-16T09:09:59.795Z,2.50
2023-04-16T09:12:28.071Z,3.17
2023-04-16T09:14:57.267Z,2.97
2023-04-16T09:17:24.313Z,3.05
2023-04-16T09:19:51.411Z,2.55
2023-04-16T09:22:18.509Z,2.78
2023-04-16T09:24:45.401Z,3.05
2023-04-16T09:27:13.420Z,2.70
2023-04-16T09:29:41.324Z,2.78
2023-04-16T09:32:10.859Z,2.95
2023-04-16T09:34:58.119Z,3.80
2023-04-16T09:37:26.853Z,3.22
2023-04-16T09:40:01.891Z,3.15
2023-04-16T09:42:30.985Z,4.03
2023-04-16T09:45:00.500Z,4.07
2023-04-16T09:47:43.856Z,5.03
2023-04-16T09:50:18.198Z,4.00
2023-04-16T09:52:50.073Z,3.42
2023-04-16T09:57:44.121Z,3.30
2023-04-16T10:00:11.626Z,3.65
2023-04-16T10:02:42.696Z,3.08
2023-04-16T10:07:37.896Z,3.72
2023-04-16T10:10:05.494Z,3.17
2023-04-16T10:12:35.658Z,3.10
2023-04-16T10:15:02.656Z,2.97
2023-04-16T10:17:31.370Z,2.70
2023-04-16T10:19:59.139Z,2.85
2023-04-16T10:22:26.827Z,2.70
2023-04-16T10:24:55.068Z,3.05
2023-04-16T10:27:22.803Z,2.85
2023-04-16T10:29:50.903Z,2.72
2023-04-16T10:32:20.874Z,2.75
2023-04-16T10:34:48.450Z,2.85
2023-04-16T10:37:18.138Z,2.92
2023-04-16T10:39:45.379Z,2.97
2023-04-16T10:42:13.139Z,2.88
2023-04-16T10:44:44.432Z,2.90
2023-04-16T10:47:13.554Z,2.78
2023-04-16T10:49:41.823Z,2.65
2023-04-16T10:52:12.236Z,2.42
2023-04-16T10:54:40.062Z,2.97
2023-04-16T10:57:15.016Z,3.33
2023-04-16T10:59:43.928Z,3.05
2023-04-16T11:02:19.755Z,3.78
2023-04-16T11:04:48.459Z,3.10
2023-04-16T11:07:33.026Z,2.60
2023-04-16T11:10:05.553Z,2.63
2023-04-16T11:12:40.021Z,2.40
2023-04-16T11:15:11.745Z,2.30
2023-04-16T11:17:46.626Z,3.20
2023-04-16T11:20:22.321Z,3.83
2023-04-16T11:22:51.007Z,3.50
2023-04-16T11:25:31.869Z,2.72
2023-04-16T11:28:01.658Z,2.15
2023-04-16T11:30:36.577Z,1.75
2023-04-16T11:33:04.798Z,1.95
2023-04-16T11:35:32.505Z,1.65
2023-04-16T11:37:59.620Z,2.05
2023-04-16T11:40:31.199Z,1.20
2023-04-16T11:46:55.490Z,1.67
2023-04-16T11:49:32.706Z,1.25
2023-04-16T11:54:50.688Z,0.85
2023-04-16T11:57:30.901Z,1.40
2023-04-16T12:00:02.186Z,0.98
2023-04-16T12:02:45.362Z,0.93
2023-04-16T12:05:39.155Z,1.05
2023-04-16T12:08:08.813Z,0.80
2023-04-16T12:10:38.115Z,0.90
2023-04-16T12:13:12.880Z,0.90
2023-04-16T12:15:54.097Z,1.05
2023-04-16T12:18:23.787Z,1.00
2023-04-16T12:20:51.461Z,1.30
2023-04-16T12:23:25.876Z,1.60
2023-04-16T12:25:53.273Z,0.73
2023-04-16T12:28:35.196Z,0.90
2023-04-16T12:31:03.671Z,0.80
2023-04-16T12:33:31.792Z,0.98
2023-04-16T12:35:58.675Z,1.85
2023-04-16T12:38:26.489Z,1.00
2023-04-16T12:40:57.133Z,1.73
2023-04-16T12:43:24.704Z,1.20
2023-04-16T12:45:51.661Z,1.17
2023-04-16T12:48:18.576Z,0.90
2023-04-16T12:50:46.256Z,1.20
2023-04-16T12:53:13.343Z,1.20
2023-04-16T12:55:40.507Z,1.02
2023-04-16T12:58:11.117Z,1.20
2023-04-16T13:00:40.014Z,1.13
2023-04-16T13:03:07.245Z,1.25
2023-04-16T13:05:34.621Z,1.15
2023-04-16T13:08:01.569Z,1.10
2023-04-16T13:10:28.839Z,1.00
2023-04-16T13:12:56.036Z,1.40
2023-04-16T13:15:23.209Z,1.00
2023-04-16T13:17:50.190Z,1.15
2023-04-16T13:20:17.339Z,1.13
2023-04-16T13:22:44.550Z,1.20
2023-04-16T13:25:11.651Z,1.20
2023-04-16T13:27:38.599Z,1.00
2023-04-16T13:30:06.324Z,0.88
2023-04-16T13:32:33.334Z,1.10
2023-04-16T13:35:22.172Z,1.27
2023-04-16T13:38:21.669Z,1.20
2023-04-16T13:40:48.860Z,1.42
2023-04-16T13:43:18.913Z,1.23
2023-04-16T13:45:46.428Z,1.42
2023-04-16T13:48:13.271Z,1.13
2023-04-16T13:50:40.536Z,1.50
2023-04-16T13:53:07.514Z,1.67
2023-04-16T13:55:34.655Z,1.90
2023-04-16T13:58:01.516Z,1.55
2023-04-16T14:00:28.656Z,1.80
2023-04-16T14:02:55.725Z,1.40
2023-04-16T14:05:26.438Z,1.10
2023-04-16T14:07:54.201Z,1.30
2023-04-16T14:10:21.375Z,1.50
2023-04-16T14:12:48.668Z,1.25
2023-04-16T14:15:15.928Z,1.33
2023-04-16T14:17:44.209Z,1.00
2023-04-16T14:20:12.908Z,1.20
2023-04-16T14:22:40.260Z,1.10
2023-04-16T14:25:07.562Z,1.00
2023-04-16T14:27:35.105Z,0.90
2023-04-16T14:30:02.154Z,1.00
2023-04-16T14:32:29.224Z,1.00
2023-04-16T14:34:56.368Z,0.93
2023-04-16T14:37:24.762Z,0.70
2023-04-16T14:39:51.865Z,1.20
2023-04-16T14:42:18.953Z,0.82
2023-04-16T14:44:45.956Z,0.90
2023-04-16T14:47:16.334Z,1.10
2023-04-16T14:49:43.189Z,0.75
2023-04-16T14:52:27.772Z,0.90
2023-04-16T14:55:08.843Z,1.08
2023-04-16T14:58:26.115Z,0.98
2023-04-16T15:00:53.460Z,1.73
2023-04-16T15:03:26.658Z,1.02
2023-04-16T15:06:19.500Z,1.20
2023-04-16T15:08:46.394Z,1.20
2023-04-16T15:11:13.394Z,1.10
2023-04-16T15:13:44.731Z,2.22
2023-04-16T15:18:46.726Z,5.32
2023-04-16T15:21:17.373Z,2.22
2023-04-16T15:23:44.792Z,1.55
2023-04-16T15:26:12.115Z,4.80
2023-04-16T15:28:45.441Z,2.33
2023-04-16T15:31:21.923Z,1.55
2023-04-16T15:34:17.718Z,1.27
2023-04-16T15:37:24.645Z,1.50
2023-04-16T15:39:51.421Z,1.27
2023-04-16T15:42:18.407Z,1.77
2023-04-16T15:44:45.484Z,1.42
2023-04-16T15:47:12.471Z,1.08
2023-04-16T15:49:39.465Z,1.30
2023-04-16T15:52:06.432Z,1.33
2023-04-16T15:54:33.419Z,1.70
2023-04-16T15:57:00.754Z,1.40
2023-04-16T15:59:27.621Z,2.65
2023-04-16T16:01:55.023Z,1.75
2023-04-16T16:04:23.162Z,1.17
2023-04-16T16:06:50.926Z,1.58
2023-04-16T16:09:25.657Z,1.95
2023-04-16T16:12:22.996Z,1.70
2023-04-16T16:14:59.144Z,2.13
2023-04-16T16:17:52.888Z,1.50
2023-04-16T16:20:20.398Z,1.50
2023-04-16T16:22:48.542Z,2.28
2023-04-16T16:25:35.675Z,2.38
2023-04-16T16:28:11.399Z,5.05
2023-04-16T16:31:09.096Z,2.10
2023-04-16T16:33:37.862Z,5.65
2023-04-16T16:36:10.455Z,2.72
2023-04-16T16:38:38.161Z,2.20
2023-04-16T16:41:04.953Z,4.38
2023-04-16T16:43:31.991Z,1.65
2023-04-16T16:45:58.988Z,1.80
2023-04-16T16:48:25.959Z,1.30
2023-04-16T16:50:52.965Z,1.70
2023-04-16T16:53:19.977Z,2.85
2023-04-16T16:55:46.925Z,2.42
2023-04-16T16:58:13.730Z,3.20
2023-04-16T17:00:40.775Z,2.97
2023-04-16T17:03:09.173Z,2.17
2023-04-16T17:05:36.315Z,2.83
2023-04-16T17:08:03.147Z,2.05
2023-04-16T17:10:31.930Z,1.60
2023-04-16T17:12:59.195Z,1.83
2023-04-16T17:15:26.077Z,2.22
2023-04-16T17:17:53.074Z,1.60
2023-04-16T17:20:20.332Z,3.80
2023-04-16T17:22:47.375Z,3.83
2023-04-16T17:25:14.649Z,7.00
2023-04-16T17:27:41.729Z,24.42
2023-04-16T17:30:09.320Z,23.77
2023-04-16T17:32:36.438Z,20.15
2023-04-16T17:35:04.422Z,13.45
2023-04-16T17:37:32.033Z,15.35
2023-04-16T17:39:59.069Z,8.45
2023-04-16T17:42:26.129Z,7.57
2023-04-16T17:44:53.251Z,7.35
2023-04-16T17:47:20.298Z,4.72
2023-04-16T17:49:47.600Z,6.05
2023-04-16T17:52:14.520Z,5.18
2023-04-16T17:54:42.428Z,6.45
2023-04-16T17:57:09.321Z,11.07
2023-04-16T17:59:37.120Z,8.88
2023-04-16T18:02:04.699Z,6.00
2023-04-16T18:04:31.991Z,4.40
2023-04-16T18:06:59.034Z,2.17
2023-04-16T18:09:26.310Z,2.40
2023-04-16T18:11:53.907Z,4.30
2023-04-16T18:14:21.669Z,4.38
2023-04-16T18:16:49.372Z,4.75
2023-04-16T18:19:16.727Z,5.50
2023-04-16T18:21:43.998Z,6.47
2023-04-16T18:24:11.630Z,5.50
2023-04-16T18:26:40.730Z,6.53
2023-04-16T18:29:09.006Z,6.40
2023-04-16T18:31:36.131Z,7.38
2023-04-16T18:34:03.095Z,6.85
2023-04-16T18:36:30.176Z,5.65
2023-04-16T18:39:02.133Z,7.82
2023-04-16T18:41:30.833Z,7.32
2023-04-16T18:43:57.872Z,6.93
2023-04-16T18:46:25.482Z,8.02
2023-04-16T18:48:52.939Z,12.32
2023-04-16T18:51:19.979Z,12.43
2023-04-16T18:53:47.060Z,10.77
2023-04-16T18:56:14.163Z,10.90
2023-04-16T18:58:41.140Z,9.98
2023-04-16T19:01:11.413Z,11.45
2023-04-16T19:03:40.916Z,12.75
2023-04-16T19:06:08.007Z,14.50
2023-04-16T19:09:07.925Z,14.20
2023-04-16T19:11:47.478Z,15.45
2023-04-16T19:14:14.318Z,17.30
2023-04-16T19:16:41.907Z,22.25
2023-04-16T19:19:09.244Z,27.15
2023-04-16T19:21:42.418Z,24.23
2023-04-16T19:24:09.562Z,20.27
2023-04-16T19:26:36.332Z,19.48
2023-04-16T19:29:03.529Z,18.52
2023-04-16T19:31:30.780Z,19.45
2023-04-16T19:33:57.717Z,20.88
2023-04-16T19:36:32.290Z,17.45
2023-04-16T19:38:59.151Z,14.73
2023-04-16T19:41:26.023Z,13.05
2023-04-16T19:43:54.876Z,12.50
2023-04-16T19:46:22.019Z,7.13
2023-04-16T19:48:48.978Z,6.93
2023-04-16T19:51:15.988Z,5.85
2023-04-16T19:53:42.838Z,6.65
2023-04-16T19:56:09.857Z,7.47
2023-04-16T19:58:36.815Z,5.97
2023-04-16T20:01:08.828Z,6.13
2023-04-16T20:03:38.901Z,6.18
2023-04-16T20:06:07.998Z,6.43
2023-04-16T20:08:35.060Z,7.13
2023-04-16T20:11:02.081Z,4.78
2023-04-16T20:13:28.960Z,7.20
2023-04-16T20:15:56.636Z,7.20
2023-04-16T20:18:23.536Z,6.15
2023-04-16T20:20:50.607Z,4.43
2023-04-16T20:23:17.535Z,4.95
2023-04-16T20:25:46.003Z,4.68
2023-04-16T20:28:16.350Z,4.57
2023-04-16T20:30:43.313Z,4.50
2023-04-16T20:33:10.318Z,5.03
2023-04-16T20:35:37.451Z,4.90
2023-04-16T20:38:04.333Z,5.43
2023-04-16T20:40:31.266Z,5.38
2023-04-16T20:43:16.328Z,6.43
2023-04-16T20:45:46.271Z,4.72
2023-04-16T20:48:13.403Z,4.35
2023-04-16T20:50:40.848Z,4.03
2023-04-16T20:53:07.807Z,4.68
2023-04-16T20:55:34.921Z,3.25
2023-04-16T20:58:01.842Z,3.40
2023-04-16T21:00:29.391Z,3.35
2023-04-16T21:02:56.560Z,3.67
2023-04-16T21:05:23.920Z,3.25
2023-04-16T21:07:51.413Z,2.88
2023-04-16T21:10:20.376Z,3.42
2023-04-16T21:12:47.501Z,3.75
2023-04-16T21:15:14.392Z,5.35
2023-04-16T21:17:41.425Z,6.53
2023-04-16T21:20:13.499Z,6.45
2023-04-16T21:22:40.528Z,7.47
2023-04-16T21:25:08.015Z,8.82
2023-04-16T21:27:34.889Z,9.32
2023-04-16T21:30:01.796Z,9.18
2023-04-16T21:32:28.885Z,8.50
2023-04-16T21:34:55.883Z,7.32
2023-04-16T21:37:22.811Z,8.23
2023-04-16T21:39:49.933Z,7.25
2023-04-16T21:42:17.094Z,9.90
2023-04-16T21:44:44.025Z,11.88
2023-04-16T21:47:10.993Z,11.77
2023-04-16T21:49:37.869Z,10.68
2023-04-16T21:52:05.033Z,8.52
2023-04-16T21:54:31.876Z,7.47
2023-04-16T21:56:59.370Z,6.57
2023-04-16T21:59:26.153Z,5.20
2023-04-16T22:01:53.396Z,4.97
2023-04-16T22:04:26.215Z,5.78
2023-04-16T22:06:56.603Z,5.47
2023-04-16T22:09:26.219Z,5.70
2023-04-16T22:11:53.253Z,6.35
2023-04-16T22:14:20.590Z,5.00
2023-04-16T22:16:50.047Z,5.78
2023-04-16T22:19:17.809Z,4.47
2023-04-16T22:21:44.749Z,4.88
2023-04-16T22:24:11.983Z,4.57
2023-04-16T22:26:38.848Z,5.78
2023-04-16T22:29:05.915Z,6.00
2023-04-16T22:31:33.101Z,5.28
2023-04-16T22:34:01.521Z,5.47
2023-04-16T22:36:31.001Z,5.38
2023-04-16T22:38:58.087Z,5.65
2023-04-16T22:41:25.328Z,7.25
2023-04-16T22:43:52.538Z,7.65
2023-04-16T22:46:24.740Z,9.07
2023-04-16T22:48:52.026Z,8.57
2023-04-16T22:51:19.019Z,9.07
2023-04-16T22:53:46.096Z,6.35
2023-04-16T22:56:12.882Z,5.22
2023-04-16T22:58:40.340Z,5.68
2023-04-16T23:01:07.212Z,4.72
2023-04-16T23:03:34.215Z,5.03
2023-04-16T23:06:01.176Z,4.97
2023-04-16T23:08:28.144Z,5.20
2023-04-16T23:10:55.164Z,5.47
2023-04-16T23:13:22.177Z,5.13
2023-04-16T23:15:49.092Z,5.28
2023-04-16T23:18:16.384Z,4.85
2023-04-16T23:20:43.318Z,5.00
2023-04-16T23:23:10.261Z,4.10
2023-04-16T23:25:37.201Z,4.68
2023-04-16T23:28:04.253Z,4.20
2023-04-16T23:30:31.050Z,4.90
2023-04-16T23:32:57.985Z,4.43
2023-04-16T23:35:24.839Z,4.30
2023-04-16T23:37:52.008Z,5.57
2023-04-16T23:40:23.438Z,4.65
2023-04-16T23:45:17.164Z,5.10
2023-04-16T23:47:44.813Z,5.57
2023-04-16T23:50:11.860Z,6.10
2023-04-16T23:52:38.902Z,6.43
2023-04-16T23:55:06.162Z,5.97
2023-04-16T23:57:32.961Z,6.00
2023-04-16T23:59:59.824Z,6.03
